sensor_id;sensor_type;location;lat;lon;timestamp;P1;durP1;ratioP1;P2;durP2;ratioP2
16845;SDS011;8539;53.188;8.696;2023-11-21T00:01:40;29.42;;;11.73;;
16845;SDS011;8539;53.188;8.696;2023-11-21T00:04:06;28.63;;;14.00;;
16845;SDS011;8539;53.188;8.696;2023-11-21T00:06:32;32.67;;;13.90;;
16845;SDS011;8539;53.188;8.696;2023-11-21T00:08:59;28.38;;;12.02;;
16845;SDS011;8539;53.188;8.696;2023-11-21T00:11:25;31.27;;;13.10;;
16845;SDS011;8539;53.188;8.696;2023-11-21T00:13:52;27.58;;;13.95;;
16845;SDS011;8539;53.188;8.696;2023-11-21T00:16:20;25.25;;;11.90;;
16845;SDS011;8539;53.188;8.696;2023-11-21T00:18:47;30.85;;;12.68;;
16845;SDS011;8539;53.188;8.696;2023-11-21T00:21:13;29.65;;;13.73;;
16845;SDS011;8539;53.188;8.696;2023-11-21T00:23:39;33.60;;;12.48;;
16845;SDS011;8539;53.188;8.696;2023-11-21T00:26:06;28.38;;;12.70;;
16845;SDS011;8539;53.188;8.696;2023-11-21T00:28:32;24.45;;;11.93;;
16845;SDS011;8539;53.188;8.696;2023-11-21T00:30:58;25.60;;;14.23;;
16845;SDS011;8539;53.188;8.696;2023-11-21T00:33:24;28.58;;;12.02;;
16845;SDS011;8539;53.188;8.696;2023-11-21T00:35:50;25.92;;;11.90;;
16845;SDS011;8539;53.188;8.696;2023-11-21T00:38:17;27.75;;;12.85;;
16845;SDS011;8539;53.188;8.696;2023-11-21T00:40:45;24.23;;;12.07;;
16845;SDS011;8539;53.188;8.696;2023-11-21T00:43:11;20.85;;;11.35;;
16845;SDS011;8539;53.188;8.696;2023-11-21T00:45:37;16.48;;;10.90;;
16845;SDS011;8539;53.188;8.696;2023-11-21T00:48:05;29.40;;;12.70;;
16845;SDS011;8539;53.188;8.696;2023-11-21T00:50:33;24.52;;;11.65;;
16845;SDS011;8539;53.188;8.696;2023-11-21T00:52:59;17.42;;;11.23;;
16845;SDS011;8539;53.188;8.696;2023-11-21T00:55:26;24.38;;;11.93;;
16845;SDS011;8539;53.188;8.696;2023-11-21T00:57:53;19.60;;;11.25;;
16845;SDS011;8539;53.188;8.696;2023-11-21T01:00:19;24.40;;;12.15;;
16845;SDS011;8539;53.188;8.696;2023-11-21T01:02:47;24.08;;;11.23;;
16845;SDS011;8539;53.188;8.696;2023-11-21T01:05:13;19.08;;;10.93;;
16845;SDS011;8539;53.188;8.696;2023-11-21T01:07:39;30.60;;;9.88;;
16845;SDS011;8539;53.188;8.696;2023-11-21T01:10:06;19.40;;;12.18;;
16845;SDS011;8539;53.188;8.696;2023-11-21T01:12:36;14.63;;;10.23;;
16845;SDS011;8539;53.188;8.696;2023-11-21T01:15:04;25.73;;;11.38;;
16845;SDS011;8539;53.188;8.696;2023-11-21T01:17:34;19.98;;;12.80;;
16845;SDS011;8539;53.188;8.696;2023-11-21T01:20:01;26.55;;;11.25;;
16845;SDS011;8539;53.188;8.696;2023-11-21T01:22:28;26.63;;;10.77;;
16845;SDS011;8539;53.188;8.696;2023-11-21T01:24:54;20.58;;;11.77;;
16845;SDS011;8539;53.188;8.696;2023-11-21T01:27:21;22.17;;;11.70;;
16845;SDS011;8539;53.188;8.696;2023-11-21T01:29:47;21.00;;;11.45;;
16845;SDS011;8539;53.188;8.696;2023-11-21T01:32:13;25.27;;;11.68;;
16845;SDS011;8539;53.188;8.696;2023-11-21T01:34:39;21.35;;;10.65;;
16845;SDS011;8539;53.188;8.696;2023-11-21T01:37:05;20.55;;;12.15;;
16845;SDS011;8539;53.188;8.696;2023-11-21T01:39:32;23.40;;;12.50;;
16845;SDS011;8539;53.188;8.696;2023-11-21T01:41:58;16.40;;;10.23;;
16845;SDS011;8539;53.188;8.696;2023-11-21T01:44:25;23.27;;;12.18;;
16845;SDS011;8539;53.188;8.696;2023-11-21T01:46:52;23.17;;;12.23;;
16845;SDS011;8539;53.188;8.696;2023-11-21T01:49:19;19.42;;;11.68;;
16845;SDS011;8539;53.188;8.696;2023-11-21T01:51:47;16.77;;;11.80;;
16845;SDS011;8539;53.188;8.696;2023-11-21T01:54:15;18.83;;;11.65;;
16845;SDS011;8539;53.188;8.696;2023-11-21T01:56:44;24.75;;;11.52;;
16845;SDS011;8539;53.188;8.696;2023-11-21T01:59:11;23.90;;;11.60;;
16845;SDS011;8539;53.188;8.696;2023-11-21T02:01:39;18.00;;;11.43;;
16845;SDS011;8539;53.188;8.696;2023-11-21T02:04:06;27.60;;;12.55;;
16845;SDS011;8539;53.188;8.696;2023-11-21T02:06:33;22.45;;;12.57;;
16845;SDS011;8539;53.188;8.696;2023-11-21T02:09:00;23.27;;;11.85;;
16845;SDS011;8539;53.188;8.696;2023-11-21T02:11:26;30.38;;;14.77;;
16845;SDS011;8539;53.188;8.696;2023-11-21T02:13:53;23.45;;;14.52;;
16845;SDS011;8539;53.188;8.696;2023-11-21T02:16:19;24.38;;;13.52;;
16845;SDS011;8539;53.188;8.696;2023-11-21T02:18:47;27.58;;;15.07;;
16845;SDS011;8539;53.188;8.696;2023-11-21T02:21:14;30.63;;;15.23;;
16845;SDS011;8539;53.188;8.696;2023-11-21T02:23:40;30.30;;;14.93;;
16845;SDS011;8539;53.188;8.696;2023-11-21T02:26:10;23.98;;;13.00;;
16845;SDS011;8539;53.188;8.696;2023-11-21T02:28:36;28.23;;;15.38;;
16845;SDS011;8539;53.188;8.696;2023-11-21T02:31:04;28.13;;;14.25;;
16845;SDS011;8539;53.188;8.696;2023-11-21T02:33:31;25.05;;;14.45;;
16845;SDS011;8539;53.188;8.696;2023-11-21T02:36:02;30.55;;;15.98;;
16845;SDS011;8539;53.188;8.696;2023-11-21T02:38:29;24.95;;;13.52;;
16845;SDS011;8539;53.188;8.696;2023-11-21T02:40:56;29.50;;;16.20;;
16845;SDS011;8539;53.188;8.696;2023-11-21T02:43:24;28.25;;;15.00;;
16845;SDS011;8539;53.188;8.696;2023-11-21T02:45:50;37.83;;;17.95;;
16845;SDS011;8539;53.188;8.696;2023-11-21T02:48:16;37.35;;;18.90;;
16845;SDS011;8539;53.188;8.696;2023-11-21T02:50:43;35.20;;;17.08;;
16845;SDS011;8539;53.188;8.696;2023-11-21T02:53:09;31.08;;;17.30;;
16845;SDS011;8539;53.188;8.696;2023-11-21T02:55:36;37.53;;;19.75;;
16845;SDS011;8539;53.188;8.696;2023-11-21T02:58:02;39.50;;;17.75;;
16845;SDS011;8539;53.188;8.696;2023-11-21T03:00:31;47.40;;;19.00;;
16845;SDS011;8539;53.188;8.696;2023-11-21T03:02:57;39.15;;;18.98;;
16845;SDS011;8539;53.188;8.696;2023-11-21T03:05:24;45.38;;;19.90;;
16845;SDS011;8539;53.188;8.696;2023-11-21T03:07:50;42.53;;;20.48;;
16845;SDS011;8539;53.188;8.696;2023-11-21T03:10:16;40.85;;;18.52;;
16845;SDS011;8539;53.188;8.696;2023-11-21T03:12:42;38.20;;;20.25;;
16845;SDS011;8539;53.188;8.696;2023-11-21T03:15:09;52.75;;;19.50;;
16845;SDS011;8539;53.188;8.696;2023-11-21T03:17:35;38.28;;;17.27;;
16845;SDS011;8539;53.188;8.696;2023-11-21T03:20:02;36.88;;;19.10;;
16845;SDS011;8539;53.188;8.696;2023-11-21T03:22:29;41.63;;;19.83;;
16845;SDS011;8539;53.188;8.696;2023-11-21T03:24:55;41.08;;;20.88;;
16845;SDS011;8539;53.188;8.696;2023-11-21T03:27:21;39.10;;;21.08;;
16845;SDS011;8539;53.188;8.696;2023-11-21T03:29:47;51.90;;;22.40;;
16845;SDS011;8539;53.188;8.696;2023-11-21T03:32:13;45.65;;;24.10;;
16845;SDS011;8539;53.188;8.696;2023-11-21T03:34:56;46.83;;;22.73;;
16845;SDS011;8539;53.188;8.696;2023-11-21T03:37:23;51.77;;;22.53;;
16845;SDS011;8539;53.188;8.696;2023-11-21T03:39:50;50.05;;;24.85;;
16845;SDS011;8539;53.188;8.696;2023-11-21T03:42:16;47.58;;;23.75;;
16845;SDS011;8539;53.188;8.696;2023-11-21T03:44:42;52.50;;;23.52;;
16845;SDS011;8539;53.188;8.696;2023-11-21T03:47:08;46.38;;;23.42;;
16845;SDS011;8539;53.188;8.696;2023-11-21T03:49:34;43.97;;;23.60;;
16845;SDS011;8539;53.188;8.696;2023-11-21T03:52:00;48.22;;;24.38;;
16845;SDS011;8539;53.188;8.696;2023-11-21T03:54:26;45.30;;;23.33;;
16845;SDS011;8539;53.188;8.696;2023-11-21T03:56:52;50.08;;;22.73;;
16845;SDS011;8539;53.188;8.696;2023-11-21T03:59:18;56.30;;;25.02;;
16845;SDS011;8539;53.188;8.696;2023-11-21T04:01:44;46.17;;;23.73;;
16845;SDS011;8539;53.188;8.696;2023-11-21T04:04:10;52.22;;;24.85;;
16845;SDS011;8539;53.188;8.696;2023-11-21T04:06:36;56.78;;;25.85;;
16845;SDS011;8539;53.188;8.696;2023-11-21T04:09:03;49.83;;;26.15;;
16845;SDS011;8539;53.188;8.696;2023-11-21T04:11:30;45.28;;;24.88;;
16845;SDS011;8539;53.188;8.696;2023-11-21T04:13:56;50.45;;;24.42;;
16845;SDS011;8539;53.188;8.696;2023-11-21T04:16:22;49.63;;;24.02;;
16845;SDS011;8539;53.188;8.696;2023-11-21T04:18:48;49.03;;;25.48;;
16845;SDS011;8539;53.188;8.696;2023-11-21T04:21:14;47.85;;;25.77;;
16845;SDS011;8539;53.188;8.696;2023-11-21T04:23:40;46.20;;;24.45;;
16845;SDS011;8539;53.188;8.696;2023-11-21T04:26:06;42.08;;;23.45;;
16845;SDS011;8539;53.188;8.696;2023-11-21T04:28:33;41.17;;;22.23;;
16845;SDS011;8539;53.188;8.696;2023-11-21T04:31:00;39.75;;;22.38;;
16845;SDS011;8539;53.188;8.696;2023-11-21T04:33:26;36.35;;;20.98;;
16845;SDS011;8539;53.188;8.696;2023-11-21T04:35:52;37.20;;;21.65;;
16845;SDS011;8539;53.188;8.696;2023-11-21T04:38:18;44.30;;;20.88;;
16845;SDS011;8539;53.188;8.696;2023-11-21T04:40:44;38.47;;;21.20;;
16845;SDS011;8539;53.188;8.696;2023-11-21T04:43:11;37.25;;;21.17;;
16845;SDS011;8539;53.188;8.696;2023-11-21T04:45:37;29.83;;;19.58;;
16845;SDS011;8539;53.188;8.696;2023-11-21T04:48:03;31.00;;;20.75;;
16845;SDS011;8539;53.188;8.696;2023-11-21T04:50:29;35.72;;;20.77;;
16845;SDS011;8539;53.188;8.696;2023-11-21T04:52:55;34.05;;;20.50;;
16845;SDS011;8539;53.188;8.696;2023-11-21T04:55:21;36.08;;;20.85;;
16845;SDS011;8539;53.188;8.696;2023-11-21T04:57:47;34.33;;;20.83;;
16845;SDS011;8539;53.188;8.696;2023-11-21T05:00:13;34.50;;;21.38;;
16845;SDS011;8539;53.188;8.696;2023-11-21T05:02:41;32.15;;;20.65;;
16845;SDS011;8539;53.188;8.696;2023-11-21T05:05:09;31.40;;;20.55;;
16845;SDS011;8539;53.188;8.696;2023-11-21T05:07:35;34.72;;;21.50;;
16845;SDS011;8539;53.188;8.696;2023-11-21T05:10:03;33.75;;;21.55;;
16845;SDS011;8539;53.188;8.696;2023-11-21T05:12:33;35.40;;;20.77;;
16845;SDS011;8539;53.188;8.696;2023-11-21T05:15:06;30.88;;;19.08;;
16845;SDS011;8539;53.188;8.696;2023-11-21T05:17:35;34.72;;;19.05;;
16845;SDS011;8539;53.188;8.696;2023-11-21T05:20:03;30.15;;;18.60;;
16845;SDS011;8539;53.188;8.696;2023-11-21T05:22:34;33.63;;;18.45;;
16845;SDS011;8539;53.188;8.696;2023-11-21T05:25:01;26.95;;;16.80;;
16845;SDS011;8539;53.188;8.696;2023-11-21T05:27:31;28.35;;;16.33;;
16845;SDS011;8539;53.188;8.696;2023-11-21T05:29:57;23.27;;;15.43;;
16845;SDS011;8539;53.188;8.696;2023-11-21T05:32:24;24.77;;;15.90;;
16845;SDS011;8539;53.188;8.696;2023-11-21T05:34:51;23.10;;;14.35;;
16845;SDS011;8539;53.188;8.696;2023-11-21T05:37:18;19.80;;;14.05;;
16845;SDS011;8539;53.188;8.696;2023-11-21T05:39:44;21.25;;;14.35;;
16845;SDS011;8539;53.188;8.696;2023-11-21T05:42:10;16.40;;;12.75;;
16845;SDS011;8539;53.188;8.696;2023-11-21T05:44:36;16.95;;;12.77;;
16845;SDS011;8539;53.188;8.696;2023-11-21T05:47:06;18.73;;;12.85;;
16845;SDS011;8539;53.188;8.696;2023-11-21T05:49:32;18.00;;;13.07;;
16845;SDS011;8539;53.188;8.696;2023-11-21T05:51:59;14.85;;;11.13;;
16845;SDS011;8539;53.188;8.696;2023-11-21T05:54:25;16.13;;;11.60;;
16845;SDS011;8539;53.188;8.696;2023-11-21T05:56:52;14.75;;;10.20;;
16845;SDS011;8539;53.188;8.696;2023-11-21T05:59:18;14.50;;;10.38;;
16845;SDS011;8539;53.188;8.696;2023-11-21T06:01:45;16.25;;;10.45;;
16845;SDS011;8539;53.188;8.696;2023-11-21T06:04:12;13.60;;;9.55;;
16845;SDS011;8539;53.188;8.696;2023-11-21T06:06:38;13.98;;;10.20;;
16845;SDS011;8539;53.188;8.696;2023-11-21T06:09:04;15.25;;;9.90;;
16845;SDS011;8539;53.188;8.696;2023-11-21T06:11:37;16.87;;;10.63;;
16845;SDS011;8539;53.188;8.696;2023-11-21T06:14:03;13.65;;;9.13;;
16845;SDS011;8539;53.188;8.696;2023-11-21T06:16:30;13.85;;;9.93;;
16845;SDS011;8539;53.188;8.696;2023-11-21T06:18:57;14.25;;;9.52;;
16845;SDS011;8539;53.188;8.696;2023-11-21T06:21:23;15.57;;;10.13;;
16845;SDS011;8539;53.188;8.696;2023-11-21T06:23:49;15.10;;;9.48;;
16845;SDS011;8539;53.188;8.696;2023-11-21T06:26:15;14.63;;;10.05;;
16845;SDS011;8539;53.188;8.696;2023-11-21T06:28:41;16.95;;;9.20;;
16845;SDS011;8539;53.188;8.696;2023-11-21T06:31:07;16.10;;;10.90;;
16845;SDS011;8539;53.188;8.696;2023-11-21T06:33:33;14.65;;;10.90;;
16845;SDS011;8539;53.188;8.696;2023-11-21T06:36:00;17.25;;;10.27;;
16845;SDS011;8539;53.188;8.696;2023-11-21T06:38:30;17.02;;;10.30;;
16845;SDS011;8539;53.188;8.696;2023-11-21T06:40:57;16.25;;;11.05;;
16845;SDS011;8539;53.188;8.696;2023-11-21T06:43:23;13.73;;;9.30;;
16845;SDS011;8539;53.188;8.696;2023-11-21T06:45:50;15.68;;;10.68;;
16845;SDS011;8539;53.188;8.696;2023-11-21T06:48:16;15.75;;;10.65;;
16845;SDS011;8539;53.188;8.696;2023-11-21T06:50:42;16.23;;;11.57;;
16845;SDS011;8539;53.188;8.696;2023-11-21T06:53:08;15.13;;;9.75;;
16845;SDS011;8539;53.188;8.696;2023-11-21T06:55:35;22.25;;;11.00;;
16845;SDS011;8539;53.188;8.696;2023-11-21T06:58:01;17.23;;;11.30;;
16845;SDS011;8539;53.188;8.696;2023-11-21T07:00:27;14.43;;;10.60;;
16845;SDS011;8539;53.188;8.696;2023-11-21T07:02:54;17.48;;;10.68;;
16845;SDS011;8539;53.188;8.696;2023-11-21T07:05:21;15.93;;;10.38;;
16845;SDS011;8539;53.188;8.696;2023-11-21T07:07:48;18.50;;;11.52;;
16845;SDS011;8539;53.188;8.696;2023-11-21T07:10:15;15.88;;;10.82;;
16845;SDS011;8539;53.188;8.696;2023-11-21T07:12:42;18.50;;;12.30;;
16845;SDS011;8539;53.188;8.696;2023-11-21T07:15:08;15.02;;;10.45;;
16845;SDS011;8539;53.188;8.696;2023-11-21T07:17:35;17.02;;;11.38;;
16845;SDS011;8539;53.188;8.696;2023-11-21T07:20:01;13.70;;;10.30;;
16845;SDS011;8539;53.188;8.696;2023-11-21T07:22:28;17.98;;;12.18;;
16845;SDS011;8539;53.188;8.696;2023-11-21T07:24:54;16.13;;;11.88;;
16845;SDS011;8539;53.188;8.696;2023-11-21T07:27:22;14.77;;;11.77;;
16845;SDS011;8539;53.188;8.696;2023-11-21T07:29:48;18.63;;;11.82;;
16845;SDS011;8539;53.188;8.696;2023-11-21T07:32:14;14.88;;;11.48;;
16845;SDS011;8539;53.188;8.696;2023-11-21T07:34:40;18.83;;;12.85;;
16845;SDS011;8539;53.188;8.696;2023-11-21T07:37:07;18.67;;;12.20;;
16845;SDS011;8539;53.188;8.696;2023-11-21T07:39:34;20.83;;;12.00;;
16845;SDS011;8539;53.188;8.696;2023-11-21T07:42:07;18.48;;;12.13;;
16845;SDS011;8539;53.188;8.696;2023-11-21T07:44:33;19.27;;;11.63;;
16845;SDS011;8539;53.188;8.696;2023-11-21T07:46:59;21.27;;;11.95;;
16845;SDS011;8539;53.188;8.696;2023-11-21T07:49:25;19.70;;;13.43;;
16845;SDS011;8539;53.188;8.696;2023-11-21T07:51:52;19.67;;;12.43;;
16845;SDS011;8539;53.188;8.696;2023-11-21T07:54:18;17.75;;;12.02;;
16845;SDS011;8539;53.188;8.696;2023-11-21T07:56:44;21.20;;;12.70;;
16845;SDS011;8539;53.188;8.696;2023-11-21T07:59:11;16.50;;;10.98;;
16845;SDS011;8539;53.188;8.696;2023-11-21T08:01:37;21.60;;;13.68;;
16845;SDS011;8539;53.188;8.696;2023-11-21T08:04:05;20.70;;;13.05;;
16845;SDS011;8539;53.188;8.696;2023-11-21T08:06:32;19.65;;;12.77;;
16845;SDS011;8539;53.188;8.696;2023-11-21T08:08:59;18.02;;;12.35;;
16845;SDS011;8539;53.188;8.696;2023-11-21T08:11:25;19.80;;;12.05;;
16845;SDS011;8539;53.188;8.696;2023-11-21T08:13:54;16.45;;;12.07;;
16845;SDS011;8539;53.188;8.696;2023-11-21T08:16:20;17.52;;;11.30;;
16845;SDS011;8539;53.188;8.696;2023-11-21T08:18:46;19.52;;;11.52;;
16845;SDS011;8539;53.188;8.696;2023-11-21T08:21:13;25.67;;;12.40;;
16845;SDS011;8539;53.188;8.696;2023-11-21T08:23:39;18.58;;;12.25;;
16845;SDS011;8539;53.188;8.696;2023-11-21T08:26:05;20.05;;;13.73;;
16845;SDS011;8539;53.188;8.696;2023-11-21T08:28:31;21.00;;;13.85;;
16845;SDS011;8539;53.188;8.696;2023-11-21T08:30:57;18.63;;;12.25;;
16845;SDS011;8539;53.188;8.696;2023-11-21T08:33:23;17.90;;;12.55;;
16845;SDS011;8539;53.188;8.696;2023-11-21T08:35:49;18.35;;;12.77;;
16845;SDS011;8539;53.188;8.696;2023-11-21T08:38:16;20.98;;;14.05;;
16845;SDS011;8539;53.188;8.696;2023-11-21T08:40:43;18.38;;;12.07;;
16845;SDS011;8539;53.188;8.696;2023-11-21T08:43:10;18.83;;;11.55;;
16845;SDS011;8539;53.188;8.696;2023-11-21T08:45:37;17.27;;;12.15;;
16845;SDS011;8539;53.188;8.696;2023-11-21T08:48:03;18.85;;;13.02;;
16845;SDS011;8539;53.188;8.696;2023-11-21T08:50:31;17.10;;;11.35;;
16845;SDS011;8539;53.188;8.696;2023-11-21T08:52:57;17.27;;;11.20;;
16845;SDS011;8539;53.188;8.696;2023-11-21T08:55:23;16.73;;;12.40;;
16845;SDS011;8539;53.188;8.696;2023-11-21T08:57:49;15.38;;;11.30;;
16845;SDS011;8539;53.188;8.696;2023-11-21T09:00:16;16.98;;;12.15;;
16845;SDS011;8539;53.188;8.696;2023-11-21T09:02:43;15.48;;;11.40;;
16845;SDS011;8539;53.188;8.696;2023-11-21T09:05:13;14.70;;;10.40;;
16845;SDS011;8539;53.188;8.696;2023-11-21T09:07:40;16.75;;;11.57;;
16845;SDS011;8539;53.188;8.696;2023-11-21T09:10:07;15.50;;;11.07;;
16845;SDS011;8539;53.188;8.696;2023-11-21T09:12:34;14.43;;;10.13;;
16845;SDS011;8539;53.188;8.696;2023-11-21T09:15:03;16.45;;;11.40;;
16845;SDS011;8539;53.188;8.696;2023-11-21T09:17:30;18.25;;;11.93;;
16845;SDS011;8539;53.188;8.696;2023-11-21T09:19:57;15.32;;;11.18;;
16845;SDS011;8539;53.188;8.696;2023-11-21T09:22:23;15.27;;;10.68;;
16845;SDS011;8539;53.188;8.696;2023-11-21T09:24:55;14.10;;;9.85;;
16845;SDS011;8539;53.188;8.696;2023-11-21T09:27:26;13.52;;;10.55;;
16845;SDS011;8539;53.188;8.696;2023-11-21T09:29:52;15.40;;;10.65;;
16845;SDS011;8539;53.188;8.696;2023-11-21T09:32:21;15.55;;;10.35;;
16845;SDS011;8539;53.188;8.696;2023-11-21T09:34:48;12.05;;;9.75;;
16845;SDS011;8539;53.188;8.696;2023-11-21T09:37:15;15.00;;;11.23;;
16845;SDS011;8539;53.188;8.696;2023-11-21T09:39:42;15.75;;;10.57;;
16845;SDS011;8539;53.188;8.696;2023-11-21T09:42:10;14.57;;;10.60;;
16845;SDS011;8539;53.188;8.696;2023-11-21T09:44:50;14.55;;;9.73;;
16845;SDS011;8539;53.188;8.696;2023-11-21T09:47:31;15.13;;;10.63;;
16845;SDS011;8539;53.188;8.696;2023-11-21T09:50:01;14.85;;;10.10;;
16845;SDS011;8539;53.188;8.696;2023-11-21T09:52:28;13.25;;;10.10;;
16845;SDS011;8539;53.188;8.696;2023-11-21T09:54:55;14.32;;;10.02;;
16845;SDS011;8539;53.188;8.696;2023-11-21T09:57:26;14.48;;;10.88;;
16845;SDS011;8539;53.188;8.696;2023-11-21T09:59:53;13.93;;;9.68;;
16845;SDS011;8539;53.188;8.696;2023-11-21T10:02:22;13.60;;;9.40;;
16845;SDS011;8539;53.188;8.696;2023-11-21T10:04:52;12.65;;;10.13;;
16845;SDS011;8539;53.188;8.696;2023-11-21T10:07:18;12.38;;;9.60;;
16845;SDS011;8539;53.188;8.696;2023-11-21T10:09:46;17.67;;;9.80;;
16845;SDS011;8539;53.188;8.696;2023-11-21T10:12:15;12.68;;;10.10;;
16845;SDS011;8539;53.188;8.696;2023-11-21T10:14:42;14.25;;;10.00;;
16845;SDS011;8539;53.188;8.696;2023-11-21T10:17:12;15.70;;;11.27;;
16845;SDS011;8539;53.188;8.696;2023-11-21T10:19:45;14.18;;;8.73;;
16845;SDS011;8539;53.188;8.696;2023-11-21T10:22:13;14.57;;;9.98;;
16845;SDS011;8539;53.188;8.696;2023-11-21T10:24:40;18.25;;;9.68;;
16845;SDS011;8539;53.188;8.696;2023-11-21T10:27:08;12.80;;;9.40;;
16845;SDS011;8539;53.188;8.696;2023-11-21T10:29:34;11.32;;;9.38;;
16845;SDS011;8539;53.188;8.696;2023-11-21T10:32:04;17.10;;;9.13;;
16845;SDS011;8539;53.188;8.696;2023-11-21T10:34:30;15.43;;;9.93;;
16845;SDS011;8539;53.188;8.696;2023-11-21T10:36:57;12.57;;;9.60;;
16845;SDS011;8539;53.188;8.696;2023-11-21T10:39:24;12.05;;;9.05;;
16845;SDS011;8539;53.188;8.696;2023-11-21T10:41:54;11.20;;;8.15;;
16845;SDS011;8539;53.188;8.696;2023-11-21T10:44:22;12.98;;;8.55;;
16845;SDS011;8539;53.188;8.696;2023-11-21T10:46:49;12.07;;;9.82;;
16845;SDS011;8539;53.188;8.696;2023-11-21T10:49:18;12.50;;;9.07;;
16845;SDS011;8539;53.188;8.696;2023-11-21T10:51:44;11.88;;;8.60;;
16845;SDS011;8539;53.188;8.696;2023-11-21T10:54:11;12.55;;;8.80;;
16845;SDS011;8539;53.188;8.696;2023-11-21T10:56:38;10.23;;;8.85;;
16845;SDS011;8539;53.188;8.696;2023-11-21T10:59:09;20.23;;;9.85;;
16845;SDS011;8539;53.188;8.696;2023-11-21T11:01:44;12.57;;;8.32;;
16845;SDS011;8539;53.188;8.696;2023-11-21T11:04:14;13.02;;;8.52;;
16845;SDS011;8539;53.188;8.696;2023-11-21T11:06:43;14.77;;;8.20;;
16845;SDS011;8539;53.188;8.696;2023-11-21T11:09:13;12.77;;;8.18;;
16845;SDS011;8539;53.188;8.696;2023-11-21T11:11:40;10.98;;;7.75;;
16845;SDS011;8539;53.188;8.696;2023-11-21T11:14:12;10.60;;;7.68;;
16845;SDS011;8539;53.188;8.696;2023-11-21T11:16:39;13.30;;;9.30;;
16845;SDS011;8539;53.188;8.696;2023-11-21T11:19:07;9.88;;;7.25;;
16845;SDS011;8539;53.188;8.696;2023-11-21T11:37:47;8.55;;;6.45;;
16845;SDS011;8539;53.188;8.696;2023-11-21T11:40:13;8.60;;;5.63;;
16845;SDS011;8539;53.188;8.696;2023-11-21T11:42:54;8.95;;;6.05;;
16845;SDS011;8539;53.188;8.696;2023-11-21T11:45:22;8.75;;;6.28;;
16845;SDS011;8539;53.188;8.696;2023-11-21T11:47:57;13.10;;;6.75;;
16845;SDS011;8539;53.188;8.696;2023-11-21T11:50:25;7.97;;;6.03;;
16845;SDS011;8539;53.188;8.696;2023-11-21T11:52:52;9.32;;;6.25;;
16845;SDS011;8539;53.188;8.696;2023-11-21T11:55:20;7.15;;;5.55;;
16845;SDS011;8539;53.188;8.696;2023-11-21T11:57:51;6.80;;;5.40;;
16845;SDS011;8539;53.188;8.696;2023-11-21T12:00:21;11.07;;;5.38;;
16845;SDS011;8539;53.188;8.696;2023-11-21T12:02:51;11.40;;;6.72;;
16845;SDS011;8539;53.188;8.696;2023-11-21T12:05:19;4.85;;;4.32;;
16845;SDS011;8539;53.188;8.696;2023-11-21T12:07:53;7.75;;;5.20;;
16845;SDS011;8539;53.188;8.696;2023-11-21T12:10:26;6.43;;;5.03;;
16845;SDS011;8539;53.188;8.696;2023-11-21T12:12:55;9.70;;;5.20;;
16845;SDS011;8539;53.188;8.696;2023-11-21T12:15:39;9.20;;;5.28;;
16845;SDS011;8539;53.188;8.696;2023-11-21T12:18:06;7.03;;;4.70;;
16845;SDS011;8539;53.188;8.696;2023-11-21T12:20:33;6.55;;;4.43;;
16845;SDS011;8539;53.188;8.696;2023-11-21T12:23:12;7.40;;;4.57;;
16845;SDS011;8539;53.188;8.696;2023-11-21T12:25:40;12.50;;;5.65;;
16845;SDS011;8539;53.188;8.696;2023-11-21T12:28:07;8.50;;;5.28;;
16845;SDS011;8539;53.188;8.696;2023-11-21T12:30:34;7.00;;;5.97;;
16845;SDS011;8539;53.188;8.696;2023-11-21T12:33:01;9.07;;;5.88;;
16845;SDS011;8539;53.188;8.696;2023-11-21T12:35:30;7.53;;;6.50;;
16845;SDS011;8539;53.188;8.696;2023-11-21T12:37:59;9.52;;;5.82;;
16845;SDS011;8539;53.188;8.696;2023-11-21T12:40:28;9.52;;;6.28;;
16845;SDS011;8539;53.188;8.696;2023-11-21T12:42:56;10.15;;;6.13;;
16845;SDS011;8539;53.188;8.696;2023-11-21T12:45:27;7.00;;;4.82;;
16845;SDS011;8539;53.188;8.696;2023-11-21T12:47:55;7.95;;;5.88;;
16845;SDS011;8539;53.188;8.696;2023-11-21T12:50:26;8.77;;;5.93;;
16845;SDS011;8539;53.188;8.696;2023-11-21T12:53:03;6.80;;;5.70;;
16845;SDS011;8539;53.188;8.696;2023-11-21T12:55:31;7.25;;;5.32;;
16845;SDS011;8539;53.188;8.696;2023-11-21T12:58:01;9.15;;;5.72;;
16845;SDS011;8539;53.188;8.696;2023-11-21T13:00:38;8.25;;;5.82;;
16845;SDS011;8539;53.188;8.696;2023-11-21T13:03:08;6.05;;;5.30;;
16845;SDS011;8539;53.188;8.696;2023-11-21T13:05:36;7.22;;;5.18;;
16845;SDS011;8539;53.188;8.696;2023-11-21T13:08:12;10.80;;;5.60;;
16845;SDS011;8539;53.188;8.696;2023-11-21T13:10:39;7.15;;;5.40;;
16845;SDS011;8539;53.188;8.696;2023-11-21T13:13:10;10.77;;;5.28;;
16845;SDS011;8539;53.188;8.696;2023-11-21T13:15:47;10.53;;;5.63;;
16845;SDS011;8539;53.188;8.696;2023-11-21T13:18:14;9.70;;;6.22;;
16845;SDS011;8539;53.188;8.696;2023-11-21T13:20:41;7.60;;;6.50;;
16845;SDS011;8539;53.188;8.696;2023-11-21T13:23:12;10.15;;;5.63;;
16845;SDS011;8539;53.188;8.696;2023-11-21T13:25:38;8.93;;;6.30;;
16845;SDS011;8539;53.188;8.696;2023-11-21T13:28:06;10.52;;;5.50;;
16845;SDS011;8539;53.188;8.696;2023-11-21T13:30:35;9.93;;;5.32;;
16845;SDS011;8539;53.188;8.696;2023-11-21T13:33:01;5.60;;;4.30;;
16845;SDS011;8539;53.188;8.696;2023-11-21T13:35:33;7.55;;;3.97;;
16845;SDS011;8539;53.188;8.696;2023-11-21T13:38:08;3.85;;;2.90;;
16845;SDS011;8539;53.188;8.696;2023-11-21T13:40:36;4.13;;;2.63;;
16845;SDS011;8539;53.188;8.696;2023-11-21T13:43:12;3.15;;;2.25;;
16845;SDS011;8539;53.188;8.696;2023-11-21T13:45:39;2.38;;;2.10;;
16845;SDS011;8539;53.188;8.696;2023-11-21T13:48:07;3.38;;;2.55;;
16845;SDS011;8539;53.188;8.696;2023-11-21T13:50:42;4.30;;;2.13;;
16845;SDS011;8539;53.188;8.696;2023-11-21T13:53:20;2.90;;;2.30;;
16845;SDS011;8539;53.188;8.696;2023-11-21T13:55:50;2.50;;;2.25;;
16845;SDS011;8539;53.188;8.696;2023-11-21T13:58:19;3.20;;;2.63;;
16845;SDS011;8539;53.188;8.696;2023-11-21T14:00:58;4.45;;;2.25;;
16845;SDS011;8539;53.188;8.696;2023-11-21T14:03:24;4.88;;;2.75;;
16845;SDS011;8539;53.188;8.696;2023-11-21T14:05:58;5.63;;;3.25;;
16845;SDS011;8539;53.188;8.696;2023-11-21T14:08:26;4.57;;;2.90;;
16845;SDS011;8539;53.188;8.696;2023-11-21T14:10:56;3.22;;;2.33;;
16845;SDS011;8539;53.188;8.696;2023-11-21T14:13:25;2.92;;;2.35;;
16845;SDS011;8539;53.188;8.696;2023-11-21T14:15:54;2.40;;;2.00;;
16845;SDS011;8539;53.188;8.696;2023-11-21T14:18:24;6.38;;;2.60;;
16845;SDS011;8539;53.188;8.696;2023-11-21T14:21:04;3.55;;;3.08;;
16845;SDS011;8539;53.188;8.696;2023-11-21T14:23:31;4.53;;;3.00;;
16845;SDS011;8539;53.188;8.696;2023-11-21T14:25:58;3.80;;;2.90;;
16845;SDS011;8539;53.188;8.696;2023-11-21T14:28:26;4.72;;;2.83;;
16845;SDS011;8539;53.188;8.696;2023-11-21T14:30:53;3.85;;;2.72;;
16845;SDS011;8539;53.188;8.696;2023-11-21T14:33:19;4.70;;;3.55;;
16845;SDS011;8539;53.188;8.696;2023-11-21T14:35:45;4.00;;;2.40;;
16845;SDS011;8539;53.188;8.696;2023-11-21T14:38:12;5.32;;;2.72;;
16845;SDS011;8539;53.188;8.696;2023-11-21T14:40:39;5.45;;;3.58;;
16845;SDS011;8539;53.188;8.696;2023-11-21T14:43:06;3.92;;;2.67;;
16845;SDS011;8539;53.188;8.696;2023-11-21T14:45:33;3.55;;;2.92;;
16845;SDS011;8539;53.188;8.696;2023-11-21T14:48:00;2.97;;;2.50;;
16845;SDS011;8539;53.188;8.696;2023-11-21T14:50:46;4.63;;;2.53;;
16845;SDS011;8539;53.188;8.696;2023-11-21T14:53:35;2.75;;;2.40;;
16845;SDS011;8539;53.188;8.696;2023-11-21T14:56:22;2.40;;;2.20;;
16845;SDS011;8539;53.188;8.696;2023-11-21T14:58:53;4.70;;;2.80;;
16845;SDS011;8539;53.188;8.696;2023-11-21T15:01:21;5.05;;;3.22;;